FRS45 EDFE-EDGE
Flight info
| Callsign | FRS45 |
|---|---|
| Flight time | N/A |
| Altitude | 2000 |
| Route | EDFE DCT EDFEY DCTE EDGE |
| Aircraft | C172/L-V/N |
Departure
| Time | 2026-04-25 17:48 |
|---|---|
| Airport | Frankfurt-Egelsbach Airport (EDFE) |
Arrival
| Time | N/A |
|---|---|
| Airport | Eisenach-Kindel Airport (EDGE) |
| Time | Latitude | Longitude | Altitude | Speed | Heading |
|---|---|---|---|---|---|
| 2026-04-25 17:41 | 49.96215 | 8.64186 | 383 ft | 0 kts | 267° |
| 2026-04-25 17:43 | 49.96215 | 8.64184 | 383 ft | 0 kts | 267° |
| 2026-04-25 17:44 | 49.96213 | 8.64179 | 383 ft | 4 kts | 225° |
| 2026-04-25 17:44 | 49.96193 | 8.64199 | 384 ft | 4 kts | 125° |
| 2026-04-25 17:44 | 49.96171 | 8.64244 | 385 ft | 9 kts | 82° |
| 2026-04-25 17:45 | 49.96176 | 8.64387 | 385 ft | 17 kts | 87° |
| 2026-04-25 17:45 | 49.96188 | 8.64515 | 387 ft | 17 kts | 92° |
| 2026-04-25 17:45 | 49.96199 | 8.64777 | 386 ft | 20 kts | 87° |
| 2026-04-25 17:45 | 49.96163 | 8.64916 | 385 ft | 0 kts | 127° |
| 2026-04-25 17:46 | 49.96145 | 8.64930 | 385 ft | 7 kts | 169° |
| 2026-04-25 17:47 | 49.96113 | 8.64892 | 384 ft | 0 kts | 256° |
| 2026-04-25 17:47 | 49.96111 | 8.64839 | 384 ft | 23 kts | 273° |
| 2026-04-25 17:47 | 49.96090 | 8.64346 | 405 ft | 64 kts | 266° |
| 2026-04-25 17:47 | 49.96032 | 8.63627 | 572 ft | 72 kts | 273° |
| 2026-04-25 17:48 | 49.95944 | 8.61929 | 1011 ft | 89 kts | 245° |
| 2026-04-25 17:48 | 49.95416 | 8.61293 | 1143 ft | 101 kts | 209° |
| 2026-04-25 17:48 | 49.94704 | 8.61184 | 1189 ft | 118 kts | 182° |
| 2026-04-25 17:49 | 49.93946 | 8.61425 | 1367 ft | 111 kts | 151° |
| 2026-04-25 17:49 | 49.93639 | 8.62406 | 1439 ft | 108 kts | 81° |
| 2026-04-25 17:49 | 49.93784 | 8.63563 | 1384 ft | 110 kts | 70° |
| 2026-04-25 17:49 | 49.93964 | 8.64678 | 1442 ft | 100 kts | 69° |
| 2026-04-25 17:50 | 49.94165 | 8.65747 | 1457 ft | 108 kts | 69° |
| 2026-04-25 17:50 | 49.94322 | 8.66947 | 1458 ft | 118 kts | 76° |
| 2026-04-25 17:50 | 49.94452 | 8.68192 | 1456 ft | 119 kts | 73° |
| 2026-04-25 17:50 | 49.94612 | 8.69449 | 1413 ft | 118 kts | 70° |
| 2026-04-25 17:51 | 49.94930 | 8.70672 | 1384 ft | 117 kts | 61° |
| 2026-04-25 17:51 | 49.95313 | 8.71924 | 1356 ft | 116 kts | 56° |
| 2026-04-25 17:51 | 49.95621 | 8.72853 | 1360 ft | 114 kts | 56° |
| 2026-04-25 17:51 | 49.95867 | 8.73591 | 1363 ft | 114 kts | 55° |
| 2026-04-25 17:52 | 49.96345 | 8.75061 | 1360 ft | 114 kts | 59° |
| 2026-04-25 17:52 | 49.96465 | 8.75759 | 1355 ft | 114 kts | 78° |
| 2026-04-25 17:52 | 49.96564 | 8.77510 | 1372 ft | 118 kts | 81° |
| 2026-04-25 17:53 | 49.96778 | 8.81600 | 1622 ft | 101 kts | 80° |
| 2026-04-25 17:55 | 49.97648 | 8.88767 | 2110 ft | 100 kts | 61° |
| 2026-04-25 17:57 | 50.00145 | 8.95283 | 2107 ft | 110 kts | 50° |
| 2026-04-25 17:58 | 50.03014 | 9.02446 | 2102 ft | 108 kts | 51° |
| 2026-04-25 18:00 | 50.05820 | 9.08595 | 2109 ft | 117 kts | 42° |
| 2026-04-25 18:00 | 50.06025 | 9.08974 | 2109 ft | 119 kts | 43° |
| 2026-04-25 18:02 | 50.10066 | 9.16442 | 2108 ft | 128 kts | 42° |